Time;durP1;ratioP1;P1;durP2;ratioP2;P2;SDS_P1;SDS_P2;PMS_P1;PMS_P2;Temp;Humidity;BMP_temperature;BMP_pressure;BME280_temperature;BME280_humidity;BME280_pressure;Samples;Min_cycle;Max_cycle;Signal;HPM_P1;HPM_P2
2022/01/17 00:01:40;;;;;;;8.43;3.85;;;18.70;58.50;;;;;;10639649;27;20103;-62
2022/01/17 00:06:45;;;;;;;9.68;4.47;;;18.70;58.60;;;;;;10623891;27;20051;-62
2022/01/17 00:11:50;;;;;;;12.38;4.78;;;18.70;58.60;;;;;;10631128;27;20039;-62
2022/01/17 00:17:09;;;;;;;10.40;4.30;;;18.60;58.40;;;;;;10630374;27;20104;-62
2022/01/17 00:22:16;;;;;;;11.00;4.80;;;18.60;58.10;;;;;;10630342;27;20070;-62
2022/01/17 00:27:21;;;;;;;6.83;4.90;;;18.60;58.20;;;;;;10630794;27;20048;-62
2022/01/17 00:32:26;;;;;;;7.35;4.50;;;18.60;57.90;;;;;;10630776;27;20064;-62
2022/01/17 00:37:31;;;;;;;10.20;3.80;;;18.50;57.90;;;;;;10612011;27;20047;-62
2022/01/17 00:42:36;;;;;;;7.35;4.25;;;18.50;58.30;;;;;;10584684;28;20549;-62
2022/01/17 00:47:41;;;;;;;5.22;3.47;;;18.50;58.40;;;;;;10584340;28;20621;-61
2022/01/17 00:52:46;;;;;;;12.00;4.78;;;18.50;58.30;;;;;;10583933;28;20488;-61
2022/01/17 00:57:51;;;;;;;6.47;4.22;;;18.50;58.20;;;;;;10584605;28;20052;-61
2022/01/17 01:02:55;;;;;;;7.07;4.60;;;18.50;58.10;;;;;;10584406;28;20454;-62
2022/01/17 01:08:01;;;;;;;6.93;4.22;;;18.40;58.00;;;;;;10583796;28;20052;-62
2022/01/17 01:13:06;;;;;;;7.97;4.60;;;18.40;58.00;;;;;;10584265;28;20069;-62
2022/01/17 01:18:19;;;;;;;7.00;3.92;;;18.40;57.70;;;;;;10584225;28;20105;-63
2022/01/17 01:28:50;;;;;;;6.07;3.95;;;18.30;57.70;;;;;;10583710;28;20069;-62
2022/01/17 01:34:03;;;;;;;5.22;3.35;;;18.30;57.80;;;;;;10583428;28;20044;-61
2022/01/17 01:39:10;;;;;;;6.72;3.90;;;18.30;58.10;;;;;;10529244;28;1563006;-61
2022/01/17 01:44:25;;;;;;;7.18;4.35;;;18.30;58.00;;;;;;10584415;28;20050;-61
2022/01/17 01:49:30;;;;;;;6.10;4.00;;;18.30;57.60;;;;;;10584402;28;20100;-62
2022/01/17 01:54:35;;;;;;;9.05;4.13;;;18.20;57.50;;;;;;10583324;28;20047;-62
2022/01/17 01:59:40;;;;;;;8.05;4.05;;;18.20;58.00;;;;;;10584410;28;20565;-62
2022/01/17 02:04:44;;;;;;;11.35;4.00;;;18.20;57.90;;;;;;10583670;28;20044;-62
2022/01/17 02:09:50;;;;;;;7.38;3.58;;;18.20;57.90;;;;;;10584174;28;20092;-62
2022/01/17 02:14:59;;;;;;;8.00;4.10;;;18.20;57.60;;;;;;10583242;28;20052;-62
2022/01/17 02:20:09;;;;;;;7.25;3.85;;;18.10;57.40;;;;;;10583736;28;20070;-62
2022/01/17 02:25:14;;;;;;;9.43;3.70;;;18.10;57.30;;;;;;10583643;28;20039;-62
2022/01/17 02:30:22;;;;;;;8.10;3.40;;;18.10;57.30;;;;;;10582533;28;20055;-63
2022/01/17 02:35:31;;;;;;;11.10;3.95;;;18.10;57.50;;;;;;10582488;28;20412;-61
2022/01/17 02:40:40;;;;;;;13.65;3.33;;;18.10;57.70;;;;;;10582316;28;20043;-62
2022/01/17 02:50:59;;;;;;;5.97;2.85;;;18.00;57.50;;;;;;10582796;28;20100;-62
2022/01/17 02:56:08;;;;;;;7.07;2.78;;;18.00;57.40;;;;;;10582449;28;20044;-62
2022/01/17 03:01:17;;;;;;;13.33;2.77;;;18.00;57.30;;;;;;10582343;28;20046;-62
2022/01/17 03:06:23;;;;;;;6.70;2.70;;;18.00;57.40;;;;;;10581818;28;20651;-62
2022/01/17 03:11:29;;;;;;;6.60;2.75;;;18.00;57.20;;;;;;10582035;28;20093;-62
2022/01/17 03:16:35;;;;;;;6.90;2.70;;;17.90;57.00;;;;;;10582132;28;20116;-62
2022/01/17 03:21:40;;;;;;;7.57;2.25;;;18.00;57.00;;;;;;10581790;28;20039;-62
2022/01/17 03:26:45;;;;;;;4.78;1.90;;;17.90;56.90;;;;;;10581170;28;20048;-62
2022/01/17 03:31:50;;;;;;;5.88;2.53;;;17.90;56.90;;;;;;10582181;28;20377;-62
2022/01/17 03:36:55;;;;;;;5.55;2.67;;;17.90;56.90;;;;;;10586196;28;20039;-60
2022/01/17 03:42:05;;;;;;;15.10;2.45;;;17.90;57.10;;;;;;10594850;28;20051;-61
2022/01/17 03:47:16;;;;;;;6.00;1.85;;;17.80;57.10;;;;;;10580311;28;20051;-61
2022/01/17 03:52:20;;;;;;;;;;;17.90;57.60;;;;;;10581898;28;20093;-63
2022/01/17 03:57:27;;;;;;;4.90;1.63;;;17.90;57.10;;;;;;10581181;28;19927;-62
2022/01/17 04:02:32;;;;;;;6.40;2.13;;;17.80;56.80;;;;;;10580416;28;20044;-61
2022/01/17 04:07:40;;;;;;;7.78;1.60;;;17.80;56.80;;;;;;10580894;28;20040;-61
2022/01/17 04:12:49;;;;;;;8.10;2.00;;;17.80;57.00;;;;;;10580873;28;20047;-61
2022/01/17 04:17:59;;;;;;;4.22;1.60;;;17.80;57.60;;;;;;10583324;28;20036;-61
2022/01/17 04:23:15;;;;;;;3.30;1.70;;;17.90;57.60;;;;;;10588445;28;20085;-61
2022/01/17 04:28:20;;;;;;;4.82;1.67;;;18.00;57.30;;;;;;10588248;28;20048;-62
2022/01/17 04:33:27;;;;;;;3.30;1.10;;;18.10;57.30;;;;;;10588132;28;20044;-62
2022/01/17 04:38:32;;;;;;;7.97;1.50;;;18.30;57.20;;;;;;10612472;27;20055;-62
2022/01/17 04:48:47;;;;;;;4.78;1.30;;;18.60;56.70;;;;;;10629977;27;20050;-62
2022/01/17 04:54:14;;;;;;;3.78;1.42;;;18.70;56.60;;;;;;10629329;27;20377;-61
2022/01/17 04:59:20;;;;;;;9.93;1.77;;;18.80;56.40;;;;;;10628878;27;20380;-62
2022/01/17 05:04:25;;;;;;;5.13;1.80;;;18.90;56.10;;;;;;10628657;27;20047;-62
2022/01/17 05:09:29;;;;;;;4.85;1.42;;;19.00;56.20;;;;;;10628663;27;20058;-61
2022/01/17 05:14:34;;;;;;;5.07;1.45;;;19.10;56.00;;;;;;10628954;27;20517;-61
2022/01/17 05:19:57;;;;;;;5.82;1.48;;;19.20;55.90;;;;;;10628735;27;20092;-61
2022/01/17 05:25:11;;;;;;;4.90;1.60;;;19.30;55.80;;;;;;10628461;27;20035;-62
2022/01/17 05:30:18;;;;;;;3.80;1.33;;;19.40;55.70;;;;;;10627059;27;20039;-62
2022/01/17 05:35:25;;;;;;;4.70;1.45;;;19.50;55.60;;;;;;10627444;27;20077;-62
2022/01/17 05:40:33;;;;;;;3.80;1.30;;;19.50;55.50;;;;;;10628226;27;20066;-62
2022/01/17 05:45:38;;;;;;;5.28;1.60;;;19.60;55.40;;;;;;10628019;27;20487;-62
2022/01/17 05:50:43;;;;;;;5.15;1.45;;;19.60;55.30;;;;;;10627575;27;20495;-62
2022/01/17 05:55:49;;;;;;;4.45;1.60;;;19.70;55.30;;;;;;10626552;27;20047;-63
2022/01/17 06:00:53;;;;;;;5.50;1.40;;;19.80;55.30;;;;;;10627430;27;20564;-63
2022/01/17 06:06:03;;;;;;;5.13;1.70;;;19.80;55.20;;;;;;10626902;27;20441;-63
2022/01/17 06:11:09;;;;;;;4.50;1.65;;;19.80;55.10;;;;;;10627465;27;20547;-61
2022/01/17 06:16:15;;;;;;;3.28;1.50;;;19.90;55.70;;;;;;10625958;27;20072;-62
2022/01/17 06:21:20;;;;;;;3.22;1.30;;;20.00;55.10;;;;;;10625269;27;20117;-62
2022/01/17 06:26:26;;;;;;;3.45;1.20;;;20.00;55.00;;;;;;10625944;27;20046;-62
2022/01/17 06:31:31;;;;;;;4.93;1.55;;;20.00;55.10;;;;;;10625783;27;20047;-61
2022/01/17 06:36:37;;;;;;;11.73;1.70;;;20.00;54.90;;;;;;10625775;27;20050;-62
2022/01/17 06:41:43;;;;;;;3.85;1.13;;;20.10;55.10;;;;;;10625120;27;20046;-62
2022/01/17 06:46:53;;;;;;;3.28;1.33;;;20.10;54.90;;;;;;10625267;27;20043;-62
2022/01/17 06:51:59;;;;;;;2.60;1.10;;;20.10;55.00;;;;;;10607579;27;20395;-62
2022/01/17 06:57:07;;;;;;;4.15;1.20;;;20.20;54.90;;;;;;10625049;27;20046;-61
2022/01/17 07:02:14;;;;;;;4.07;1.25;;;20.20;54.90;;;;;;10606785;27;20416;-61
2022/01/17 07:07:24;;;;;;;3.40;1.15;;;20.20;54.80;;;;;;10624571;27;20111;-62
2022/01/17 07:12:29;;;;;;;2.80;1.35;;;20.20;54.80;;;;;;10624492;27;20043;-60
2022/01/17 07:17:34;;;;;;;5.75;1.40;;;20.10;54.80;;;;;;10624377;27;20046;-61
2022/01/17 07:22:39;;;;;;;10.98;1.33;;;20.10;55.10;;;;;;10623656;28;20059;-61
2022/01/17 07:27:44;;;;;;;6.65;1.48;;;20.00;55.20;;;;;;10624064;28;20091;-60
2022/01/17 07:32:52;;;;;;;6.53;1.27;;;20.00;55.50;;;;;;10624655;28;20047;-60
2022/01/17 07:37:57;;;;;;;3.80;1.05;;;19.90;55.60;;;;;;10624078;28;20047;-60
2022/01/17 07:43:02;;;;;;;4.80;1.48;;;19.80;55.70;;;;;;10623897;28;20073;-59
2022/01/17 07:48:44;;;;;;;5.63;1.48;;;19.80;55.70;;;;;;10623446;28;20047;-59
2022/01/17 07:53:39;;;;;;;4.20;1.13;;;19.70;55.80;;;;;;10609469;27;20096;-61
2022/01/17 07:58:44;;;;;;;3.50;1.13;;;19.70;55.90;;;;;;10632034;27;20462;-61
2022/01/17 08:03:49;;;;;;;6.32;1.38;;;19.60;55.80;;;;;;10631628;27;20068;-62
2022/01/17 08:08:55;;;;;;;6.03;1.80;;;19.60;55.80;;;;;;10631527;27;20047;-62
2022/01/17 08:14:01;;;;;;;7.53;1.70;;;19.50;55.70;;;;;;10630885;27;20051;-61
2022/01/17 08:19:09;;;;;;;4.78;1.35;;;19.50;55.80;;;;;;10631221;27;20039;-62
2022/01/17 08:24:14;;;;;;;4.38;1.13;;;19.50;55.80;;;;;;10631016;27;20460;-62
2022/01/17 08:29:25;;;;;;;4.30;1.33;;;19.40;55.70;;;;;;10630388;27;20039;-63
2022/01/17 08:34:30;;;;;;;4.55;1.30;;;19.40;55.80;;;;;;10630601;27;20047;-63
2022/01/17 08:39:34;;;;;;;6.00;1.30;;;19.40;55.80;;;;;;10626009;27;20047;-63
2022/01/17 08:44:40;;;;;;;6.57;1.50;;;19.30;55.80;;;;;;10597202;27;20055;-63
2022/01/17 08:49:48;;;;;;;4.18;1.40;;;19.30;55.90;;;;;;10587425;28;20102;-63
2022/01/17 08:54:53;;;;;;;5.63;1.80;;;19.20;55.80;;;;;;10587244;28;20043;-63
2022/01/17 09:00:07;;;;;;;2.72;1.85;;;19.20;55.90;;;;;;10587004;28;20100;-63
2022/01/17 09:05:12;;;;;;;7.78;2.42;;;19.20;56.00;;;;;;10585753;28;20446;-63
2022/01/17 09:10:17;;;;;;;9.75;5.95;;;19.20;56.20;;;;;;10568861;28;20492;-62
2022/01/17 09:15:23;;;;;;;10.40;6.28;;;19.10;56.30;;;;;;10586380;28;20545;-62
2022/01/17 09:20:34;;;;;;;11.88;5.32;;;19.20;56.20;;;;;;10585799;28;20492;-61
2022/01/17 09:25:40;;;;;;;7.68;5.03;;;19.30;56.10;;;;;;10585994;28;20040;-62
2022/01/17 09:30:45;;;;;;;11.80;5.35;;;19.30;56.00;;;;;;10585294;28;20101;-62
2022/01/17 09:35:50;;;;;;;7.47;5.18;;;19.40;55.90;;;;;;10585564;28;20499;-62
2022/01/17 09:40:54;;;;;;;7.60;4.68;;;19.50;56.20;;;;;;10550705;28;20089;-62
2022/01/17 09:46:26;;;;;;;11.88;5.68;;;19.60;56.40;;;;;;10584720;28;20100;-62
2022/01/17 09:51:41;;;;;;;13.57;4.63;;;19.70;56.30;;;;;;10585618;27;20103;-62
2022/01/17 09:56:50;;;;;;;14.02;5.30;;;19.80;56.20;;;;;;10598414;27;20096;-62
2022/01/17 10:01:58;;;;;;;45.17;5.20;;;19.80;56.10;;;;;;10573858;28;20048;-63
2022/01/17 10:07:09;;;;;;;21.13;5.20;;;19.80;55.70;;;;;;10543109;28;20044;-65
2022/01/17 10:12:16;;;;;;;13.75;4.10;;;19.90;55.50;;;;;;10581147;28;20047;-62
2022/01/17 10:17:21;;;;;;;11.05;4.38;;;20.00;55.20;;;;;;10582380;28;20097;-62
2022/01/17 10:22:35;;;;;;;15.95;4.68;;;20.20;55.00;;;;;;10579915;28;20118;-64
2022/01/17 10:38:37;;;;;;;8.85;4.00;;;20.40;54.40;;;;;;10563891;28;20043;-65
2022/01/17 10:43:46;;;;;;;9.48;4.07;;;20.50;54.20;;;;;;10583121;28;20046;-64
2022/01/17 10:48:56;;;;;;;6.70;3.97;;;20.50;54.20;;;;;;10582761;28;20044;-64
2022/01/17 10:54:17;;;;;;;6.18;3.78;;;20.50;54.00;;;;;;10582006;28;20051;-64
2022/01/17 10:59:29;;;;;;;9.00;3.83;;;20.50;53.80;;;;;;10582723;28;20096;-64
2022/01/17 11:04:39;;;;;;;6.85;3.90;;;20.60;53.70;;;;;;10582120;28;20047;-63
2022/01/17 11:09:51;;;;;;;10.05;3.45;;;20.60;53.60;;;;;;10607380;27;20039;-66
2022/01/17 11:15:00;;;;;;;5.38;3.17;;;20.70;53.60;;;;;;10620084;27;20446;-64
2022/01/17 11:20:09;;;;;;;6.70;3.78;;;20.60;53.40;;;;;;10623686;27;20055;-65
2022/01/17 11:25:22;;;;;;;7.45;2.95;;;20.70;53.40;;;;;;10623338;28;20080;-66
2022/01/17 11:30:28;;;;;;;5.35;3.05;;;20.70;53.30;;;;;;10629919;27;20043;-65
2022/01/17 11:35:34;;;;;;;7.82;3.20;;;20.70;53.10;;;;;;10632061;27;20039;-63
2022/01/17 11:40:40;;;;;;;6.22;3.30;;;20.70;53.00;;;;;;10597690;27;20052;-64
2022/01/17 11:45:46;;;;;;;6.72;3.17;;;20.70;52.90;;;;;;10590011;28;20101;-64
2022/01/17 11:50:52;;;;;;;7.68;3.17;;;20.60;53.10;;;;;;10588948;28;20044;-64
2022/01/17 11:55:57;;;;;;;10.27;3.13;;;20.50;53.20;;;;;;10588916;28;20073;-65
2022/01/17 12:01:05;;;;;;;6.70;2.85;;;20.50;53.10;;;;;;10588955;28;20104;-66
2022/01/17 12:06:36;;;;;;;14.88;2.80;;;20.40;53.20;;;;;;10589232;28;20039;-67
2022/01/17 12:11:42;;;;;;;4.32;2.45;;;20.30;53.30;;;;;;10582167;28;20060;-66
2022/01/17 12:16:47;;;;;;;5.55;2.85;;;20.20;53.30;;;;;;10589240;28;20404;-65
2022/01/17 12:22:06;;;;;;;8.10;3.05;;;20.20;53.30;;;;;;10588227;28;20061;-65
2022/01/17 12:27:16;;;;;;;7.25;4.30;;;20.10;53.30;;;;;;10584651;28;20044;-64
2022/01/17 12:32:35;;;;;;;12.05;4.60;;;20.00;52.70;;;;;;10586419;27;20084;-62
2022/01/17 12:38:03;;;;;;;8.88;3.90;;;20.00;52.90;;;;;;10608724;27;20488;-63
2022/01/17 12:43:35;;;;;;;8.38;4.18;;;19.90;53.10;;;;;;10598632;27;20039;-60
2022/01/17 12:48:48;;;;;;;7.65;4.53;;;20.00;52.80;;;;;;10583711;27;20040;-61
2022/01/17 12:53:54;;;;;;;7.65;3.97;;;19.80;52.90;;;;;;10591331;27;20447;-61
2022/01/17 12:59:01;;;;;;;6.35;3.10;;;19.70;52.90;;;;;;10600616;27;20038;-64
2022/01/17 13:04:11;;;;;;;7.10;2.93;;;19.70;52.90;;;;;;10603192;27;20051;-63
2022/01/17 13:32:05;;;;;;;13.63;3.30;;;19.40;52.10;;;;;;10661554;27;20316;-59
2022/01/17 13:37:15;;;;;;;18.38;3.65;;;19.30;52.60;;;;;;10660298;27;20043;-57
2022/01/17 13:42:30;;;;;;;15.30;3.35;;;19.30;51.90;;;;;;10660792;27;20043;-58
2022/01/17 13:47:38;;;;;;;57.88;25.23;;;19.30;53.10;;;;;;10660633;27;20479;-60
2022/01/17 13:52:43;;;;;;;18.40;9.43;;;19.30;53.80;;;;;;10660135;27;20051;-60
2022/01/17 13:58:00;;;;;;;21.23;7.55;;;19.40;54.70;;;;;;10660646;27;20047;-62
2022/01/17 14:03:08;;;;;;;18.60;7.43;;;19.40;55.10;;;;;;10659580;27;20043;-62
2022/01/17 14:08:14;;;;;;;24.17;6.45;;;19.40;55.40;;;;;;10654127;27;20072;-63
2022/01/17 14:13:23;;;;;;;20.40;9.85;;;19.40;55.80;;;;;;10658599;27;20043;-64
2022/01/17 14:18:28;;;;;;;24.13;13.27;;;19.40;55.50;;;;;;10656174;27;20050;-63
2022/01/17 14:23:36;;;;;;;29.20;16.25;;;19.40;55.40;;;;;;10658110;27;20039;-63
2022/01/17 14:28:50;;;;;;;28.75;16.67;;;19.50;55.50;;;;;;10656596;27;20072;-65
2022/01/17 14:34:11;;;;;;;20.17;12.65;;;19.50;55.60;;;;;;10657031;27;20087;-64
2022/01/17 14:39:17;;;;;;;17.95;10.70;;;19.50;55.50;;;;;;10651913;27;20072;-64
2022/01/17 14:44:21;;;;;;;14.30;9.60;;;19.60;55.40;;;;;;10629410;27;20088;-64
2022/01/17 14:49:28;;;;;;;21.13;12.38;;;19.60;55.30;;;;;;10626410;27;20047;-64
2022/01/17 14:54:36;;;;;;;36.72;18.15;;;19.60;55.20;;;;;;10628509;27;20505;-65
2022/01/17 15:00:11;;;;;;;28.40;14.57;;;19.60;55.10;;;;;;10627744;27;20069;-63
2022/01/17 15:05:16;;;;;;;40.00;18.40;;;19.60;54.90;;;;;;10627141;27;20568;-62
2022/01/17 15:10:24;;;;;;;45.55;20.17;;;19.50;54.70;;;;;;10627760;27;20043;-64
2022/01/17 15:15:30;;;;;;;31.48;15.50;;;19.50;54.70;;;;;;10627770;27;20054;-65
2022/01/17 15:20:36;;;;;;;30.60;13.23;;;19.50;54.60;;;;;;10627422;27;20056;-59
2022/01/17 15:25:41;;;;;;;58.00;11.52;;;19.50;54.50;;;;;;10627819;27;20043;-57
2022/01/17 15:30:53;;;;;;;24.23;10.20;;;19.50;54.70;;;;;;10627018;27;20043;-57
2022/01/17 15:35:58;;;;;;;53.75;22.92;;;19.50;54.60;;;;;;10625057;27;20043;-58
2022/01/17 15:41:05;;;;;;;40.35;17.23;;;19.50;54.70;;;;;;10608627;27;20043;-58
2022/01/17 15:46:11;;;;;;;34.25;15.75;;;19.40;54.60;;;;;;10626635;27;20068;-57
2022/01/17 15:51:20;;;;;;;31.98;13.80;;;19.50;54.70;;;;;;10623280;27;20479;-56
2022/01/17 15:56:25;;;;;;;31.77;13.98;;;19.40;54.60;;;;;;10625870;27;20047;-55
2022/01/17 16:01:30;;;;;;;29.55;14.27;;;19.40;54.70;;;;;;10625664;27;20047;-52
2022/01/17 16:06:35;;;;;;;40.40;17.73;;;19.30;54.60;;;;;;10625415;27;20111;-57
2022/01/17 16:11:39;;;;;;;34.78;15.90;;;19.30;54.60;;;;;;10623256;27;20035;-55
2022/01/17 16:16:44;;;;;;;29.42;12.75;;;19.30;54.90;;;;;;10625297;27;20385;-56
2022/01/17 16:21:50;;;;;;;25.40;11.15;;;19.30;55.30;;;;;;10625555;27;20031;-57
2022/01/17 16:26:54;;;;;;;19.48;10.50;;;19.30;55.50;;;;;;10624396;27;20065;-58
2022/01/17 16:31:58;;;;;;;20.08;9.07;;;19.30;55.90;;;;;;10621828;27;20047;-57
2022/01/17 16:37:02;;;;;;;17.80;9.60;;;19.30;56.10;;;;;;10625615;27;20437;-57
2022/01/17 16:42:07;;;;;;;17.58;9.63;;;19.30;56.60;;;;;;10625759;27;20441;-56
2022/01/17 16:47:18;;;;;;;19.50;9.88;;;19.30;57.00;;;;;;10624835;27;20051;-57
2022/01/17 16:52:22;;;;;;;19.00;9.38;;;19.30;57.60;;;;;;10624901;27;20490;-58
2022/01/17 16:57:27;;;;;;;16.20;8.80;;;19.20;58.20;;;;;;10625146;27;20062;-57
2022/01/17 17:02:30;;;;;;;17.45;8.70;;;19.20;58.70;;;;;;10624204;27;20047;-57
2022/01/17 17:07:35;;;;;;;15.90;8.40;;;19.30;59.00;;;;;;10624408;27;20047;-55
2022/01/17 17:12:39;;;;;;;14.15;8.30;;;19.20;59.00;;;;;;10624101;27;20069;-55
2022/01/17 17:17:43;;;;;;;14.00;7.32;;;19.20;59.40;;;;;;10623414;27;20047;-55
2022/01/17 17:22:53;;;;;;;12.15;6.57;;;19.20;59.40;;;;;;10605781;27;20076;-56
2022/01/17 17:27:58;;;;;;;11.20;6.25;;;19.30;59.70;;;;;;10623217;27;20063;-56
2022/01/17 17:33:04;;;;;;;10.32;6.22;;;19.30;59.70;;;;;;10624821;28;20047;-54
2022/01/17 17:38:14;;;;;;;10.65;6.20;;;19.40;59.80;;;;;;10624854;28;20051;-55
2022/01/17 17:43:19;;;;;;;13.88;6.55;;;19.40;59.70;;;;;;10624347;28;20047;-55
2022/01/17 17:48:29;;;;;;;11.85;6.55;;;19.40;59.80;;;;;;10623138;28;20051;-55
2022/01/17 17:53:34;;;;;;;10.75;6.28;;;19.40;60.00;;;;;;10623382;28;20066;-54
2022/01/17 17:58:39;;;;;;;21.58;7.47;;;19.40;60.20;;;;;;10592939;28;20101;-61
2022/01/17 18:03:44;;;;;;;25.08;6.63;;;19.50;60.20;;;;;;10602464;28;20065;-61
2022/01/17 18:08:50;;;;;;;11.10;5.68;;;19.60;60.20;;;;;;10623051;28;20403;-59
2022/01/17 18:13:54;;;;;;;11.63;5.55;;;19.70;60.00;;;;;;10624166;27;20412;-59
2022/01/17 18:18:59;;;;;;;9.23;5.13;;;19.80;60.00;;;;;;10630802;27;20055;-60
2022/01/17 18:24:06;;;;;;;8.25;5.40;;;19.90;59.90;;;;;;10630610;27;20051;-60
2022/01/17 18:29:11;;;;;;;8.95;4.80;;;20.00;59.90;;;;;;10630281;27;20096;-60
2022/01/17 18:34:16;;;;;;;7.15;4.32;;;20.00;59.90;;;;;;10630231;27;20445;-60
2022/01/17 18:39:24;;;;;;;6.88;4.47;;;20.10;59.90;;;;;;10629970;27;20377;-60
2022/01/17 18:44:31;;;;;;;11.27;5.68;;;20.10;59.90;;;;;;10630284;27;20062;-60
2022/01/17 18:49:35;;;;;;;12.93;5.50;;;20.10;59.80;;;;;;10630635;27;20047;-60
2022/01/17 18:54:40;;;;;;;8.68;5.32;;;20.10;59.70;;;;;;10629394;27;20051;-60
2022/01/17 18:59:45;;;;;;;10.70;5.35;;;20.10;59.60;;;;;;10629262;27;20104;-60
2022/01/17 19:04:49;;;;;;;12.13;5.32;;;20.10;59.50;;;;;;10629014;27;20571;-60
2022/01/17 19:09:54;;;;;;;8.25;4.60;;;20.20;59.60;;;;;;10628721;27;20043;-59
2022/01/17 19:14:59;;;;;;;9.25;4.88;;;20.20;59.50;;;;;;10628693;27;20120;-59
2022/01/17 19:20:25;;;;;;;7.30;5.10;;;20.20;59.40;;;;;;10628642;27;20563;-61
2022/01/17 19:25:30;;;;;;;8.32;4.57;;;20.30;59.40;;;;;;10611362;27;20043;-61
2022/01/17 19:30:35;;;;;;;11.00;4.95;;;20.30;59.40;;;;;;10628225;27;20047;-59
2022/01/17 19:35:40;;;;;;;9.75;4.38;;;20.30;59.40;;;;;;10627986;27;20419;-60
2022/01/17 19:40:45;;;;;;;8.52;4.03;;;20.20;59.40;;;;;;10627314;27;20100;-61
2022/01/17 19:45:50;;;;;;;11.73;4.70;;;20.20;59.50;;;;;;10627410;27;20503;-60
2022/01/17 19:50:55;;;;;;;8.98;5.07;;;20.20;59.50;;;;;;10628383;27;20100;-61
2022/01/17 19:56:00;;;;;;;7.18;4.65;;;20.20;59.50;;;;;;10626945;27;20047;-62
2022/01/17 20:01:07;;;;;;;7.30;4.35;;;20.10;59.40;;;;;;10626733;27;20047;-61
2022/01/17 20:06:12;;;;;;;8.07;4.35;;;20.20;59.50;;;;;;10585329;28;20104;-61
2022/01/17 20:11:18;;;;;;;7.53;4.32;;;20.10;59.50;;;;;;10599558;27;20447;-62
2022/01/17 20:16:23;;;;;;;9.15;4.60;;;20.10;59.50;;;;;;10583904;28;20081;-61
2022/01/17 20:21:28;;;;;;;6.40;4.25;;;20.10;59.60;;;;;;10583318;28;20098;-61
2022/01/17 20:26:33;;;;;;;8.00;4.30;;;20.10;59.60;;;;;;10609417;27;20050;-62
2022/01/17 20:31:37;;;;;;;7.13;4.15;;;20.10;59.60;;;;;;10626301;27;20488;-62
2022/01/17 20:36:42;;;;;;;7.07;4.22;;;20.10;59.60;;;;;;10624502;27;20055;-62
2022/01/17 20:41:47;;;;;;;7.57;4.05;;;20.00;59.60;;;;;;10625431;27;20068;-61
2022/01/17 20:46:51;;;;;;;6.03;3.75;;;20.00;59.60;;;;;;10625495;27;20047;-62
2022/01/17 20:51:56;;;;;;;7.60;5.00;;;20.00;59.60;;;;;;10624368;27;20047;-62
2022/01/17 20:57:00;;;;;;;6.90;4.68;;;20.00;59.60;;;;;;10624753;27;20552;-62
2022/01/17 21:02:05;;;;;;;6.47;4.28;;;20.00;59.60;;;;;;10624192;27;20061;-62
2022/01/17 21:07:10;;;;;;;7.18;4.60;;;20.00;59.70;;;;;;10624040;27;20407;-62
2022/01/17 21:12:19;;;;;;;9.07;4.55;;;20.00;59.80;;;;;;10624103;27;20047;-61
2022/01/17 21:17:23;;;;;;;5.90;3.90;;;20.00;59.80;;;;;;10624414;27;20055;-62
2022/01/17 21:22:28;;;;;;;6.90;3.90;;;19.90;59.90;;;;;;10624532;27;20059;-60
2022/01/17 21:27:33;;;;;;;8.10;3.55;;;19.90;60.00;;;;;;10623588;27;20452;-59
2022/01/17 21:32:39;;;;;;;5.90;3.80;;;19.90;60.00;;;;;;10624202;28;20043;-62
2022/01/17 21:37:44;;;;;;;6.00;4.20;;;19.90;60.00;;;;;;10624014;28;20039;-61
2022/01/17 21:42:49;;;;;;;6.72;3.85;;;19.90;60.10;;;;;;10623515;28;20138;-60
2022/01/17 21:47:53;;;;;;;5.82;3.50;;;19.90;60.10;;;;;;10622473;28;20480;-61
2022/01/17 21:52:58;;;;;;;6.55;3.83;;;19.80;60.20;;;;;;10630701;27;20110;-61
2022/01/17 21:58:03;;;;;;;6.15;3.83;;;19.80;60.20;;;;;;10631443;27;20051;-62
2022/01/17 22:03:07;;;;;;;6.18;3.65;;;19.80;60.30;;;;;;10632651;27;20043;-61
2022/01/17 22:08:11;;;;;;;8.25;3.58;;;19.70;60.20;;;;;;10631409;27;20059;-62
2022/01/17 22:13:15;;;;;;;6.45;3.28;;;19.70;60.40;;;;;;10631157;27;20446;-61
2022/01/17 22:18:19;;;;;;;5.75;3.35;;;19.70;60.40;;;;;;10631138;27;20047;-62
2022/01/17 22:23:23;;;;;;;6.60;3.45;;;19.70;60.40;;;;;;10631570;27;20068;-61
2022/01/17 22:28:27;;;;;;;5.43;3.10;;;19.70;60.50;;;;;;10631107;27;20059;-61
2022/01/17 22:33:31;;;;;;;5.63;3.28;;;19.70;60.60;;;;;;10629971;27;20103;-61
2022/01/17 22:38:36;;;;;;;5.30;3.60;;;19.60;60.60;;;;;;10630312;27;20051;-61
2022/01/17 22:43:40;;;;;;;4.75;3.58;;;19.60;60.60;;;;;;10630552;27;20039;-61
2022/01/17 22:48:44;;;;;;;5.28;3.13;;;19.60;60.70;;;;;;10630420;27;20099;-60
2022/01/17 22:53:47;;;;;;;4.47;3.08;;;19.60;60.80;;;;;;10629542;27;20146;-61
2022/01/17 22:58:51;;;;;;;6.72;3.40;;;19.60;60.80;;;;;;10602355;27;20051;-61
2022/01/17 23:03:55;;;;;;;4.13;2.90;;;19.60;60.80;;;;;;10624673;27;20442;-62
2022/01/17 23:09:00;;;;;;;5.38;3.28;;;19.50;60.80;;;;;;10629585;27;20043;-59
2022/01/17 23:14:06;;;;;;;6.43;3.30;;;19.60;60.90;;;;;;10628883;27;20051;-60
2022/01/17 23:19:20;;;;;;;12.82;4.75;;;19.50;60.80;;;;;;10626742;27;20441;-58
2022/01/17 23:24:25;;;;;;;10.07;5.13;;;19.50;60.20;;;;;;10623545;27;20047;-61
2022/01/17 23:29:32;;;;;;;16.02;5.05;;;19.30;60.10;;;;;;10625956;27;20399;-63
2022/01/17 23:34:43;;;;;;;9.95;3.83;;;19.30;60.40;;;;;;10626228;27;20066;-63
2022/01/17 23:39:51;;;;;;;4.85;2.60;;;19.30;60.40;;;;;;10627044;27;20051;-62
2022/01/17 23:44:56;;;;;;;10.20;3.10;;;19.30;60.30;;;;;;10627493;27;20116;-62
2022/01/17 23:50:02;;;;;;;3.72;2.30;;;19.30;60.40;;;;;;10627270;27;20400;-63
2022/01/17 23:55:08;;;;;;;6.63;2.28;;;19.20;60.40;;;;;;10627695;27;20040;-63
